createdAt,value
2022-12-24T00:00:01.167Z,10.3
2022-12-24T00:01:00.763Z,10.4
2022-12-24T00:02:00.416Z,10.5
2022-12-24T00:03:01.048Z,10.4
2022-12-24T00:04:00.626Z,10.5
2022-12-24T00:05:01.716Z,10.4
2022-12-24T00:06:00.388Z,10.4
2022-12-24T00:07:00.980Z,10.3
2022-12-24T00:08:00.593Z,10.3
2022-12-24T00:09:01.186Z,10.3
2022-12-24T00:10:00.801Z,10.3
2022-12-24T00:11:00.400Z,10.3
2022-12-24T00:12:00.970Z,10.3
2022-12-24T00:13:00.570Z,10.4
2022-12-24T00:14:01.179Z,10.4
2022-12-24T00:15:00.837Z,10.4
2022-12-24T00:16:00.402Z,10.4
2022-12-24T00:17:01.008Z,10.4
2022-12-24T00:18:00.612Z,10.4
2022-12-24T00:19:01.221Z,10.3
2022-12-24T00:20:00.834Z,10.4
2022-12-24T00:21:00.429Z,10.5
2022-12-24T00:22:00.999Z,10.6
2022-12-24T00:23:00.589Z,10.6
2022-12-24T00:24:01.222Z,10.5
2022-12-24T00:25:00.809Z,10.7
2022-12-24T00:26:00.397Z,10.7
2022-12-24T00:27:00.994Z,10.8
2022-12-24T00:28:00.629Z,10.8
2022-12-24T00:29:01.197Z,10.8
2022-12-24T00:30:00.820Z,10.7
2022-12-24T00:31:00.490Z,10.6
2022-12-24T00:32:01.031Z,10.6
2022-12-24T00:33:00.628Z,10.6
2022-12-24T00:34:00.212Z,10.6
2022-12-24T00:35:00.798Z,10.6
2022-12-24T00:36:00.386Z,10.7
2022-12-24T00:37:00.989Z,10.7
2022-12-24T00:38:00.579Z,10.7
2022-12-24T00:39:01.187Z,10.7
2022-12-24T00:40:00.822Z,10.7
2022-12-24T00:41:00.410Z,10.7
2022-12-24T00:42:00.975Z,10.7
2022-12-24T00:43:00.568Z,10.7
2022-12-24T00:44:01.158Z,10.7
2022-12-24T00:45:00.753Z,10.7
2022-12-24T00:46:00.478Z,10.7
2022-12-24T00:47:01.942Z,10.7
2022-12-24T00:48:00.489Z,10.7
2022-12-24T00:49:01.120Z,10.8
2022-12-24T00:50:00.724Z,10.7
2022-12-24T00:51:00.384Z,10.7
2022-12-24T00:52:00.884Z,10.7
2022-12-24T00:53:00.484Z,10.7
2022-12-24T00:54:01.131Z,10.7
2022-12-24T00:55:00.725Z,10.8
2022-12-24T00:56:00.330Z,10.8
2022-12-24T00:57:00.881Z,10.7
2022-12-24T00:58:00.476Z,10.8
2022-12-24T00:59:01.107Z,10.8
2022-12-24T01:00:00.730Z,10.7
2022-12-24T01:01:00.331Z,10.7
2022-12-24T01:02:00.937Z,10.7
2022-12-24T01:03:00.644Z,10.8
2022-12-24T01:04:01.118Z,10.8
2022-12-24T01:05:00.725Z,10.8
2022-12-24T01:06:00.305Z,10.8
2022-12-24T01:07:00.887Z,10.8
2022-12-24T01:08:00.484Z,10.8
2022-12-24T01:09:01.076Z,10.8
2022-12-24T01:10:00.665Z,10.8
2022-12-24T01:11:00.263Z,10.8
2022-12-24T01:12:00.848Z,10.8
2022-12-24T01:13:00.479Z,10.8
2022-12-24T01:14:01.068Z,10.8
2022-12-24T01:15:00.675Z,10.8
2022-12-24T01:16:00.285Z,10.8
2022-12-24T01:17:00.836Z,10.8
2022-12-24T01:18:00.430Z,10.8
2022-12-24T01:19:01.005Z,10.8
2022-12-24T01:20:00.602Z,10.8
2022-12-24T01:21:01.171Z,10.8
2022-12-24T01:22:00.820Z,10.8
2022-12-24T01:23:00.402Z,10.8
2022-12-24T01:24:00.990Z,10.8
2022-12-24T01:25:00.590Z,10.8
2022-12-24T01:26:01.150Z,10.7
2022-12-24T01:27:00.763Z,10.7
2022-12-24T01:28:00.383Z,10.7
2022-12-24T01:29:00.961Z,10.7
2022-12-24T01:30:00.561Z,10.7
2022-12-24T01:31:01.178Z,10.7
2022-12-24T01:32:00.856Z,10.7
2022-12-24T01:33:00.375Z,10.7
2022-12-24T01:34:00.991Z,10.7
2022-12-24T01:35:00.658Z,10.7
2022-12-24T01:36:01.175Z,10.7
2022-12-24T01:37:00.780Z,10.6
2022-12-24T01:38:00.383Z,10.6
2022-12-24T01:39:00.987Z,10.7
2022-12-24T01:40:00.620Z,10.6
2022-12-24T01:41:01.192Z,10.6
2022-12-24T01:42:00.809Z,10.7
2022-12-24T01:43:00.395Z,10.6
2022-12-24T01:44:01.011Z,10.6
2022-12-24T01:45:00.759Z,10.7
2022-12-24T01:46:01.228Z,10.7
2022-12-24T01:47:00.839Z,10.6
2022-12-24T01:48:00.424Z,10.5
2022-12-24T01:49:01.019Z,10.6
2022-12-24T01:50:00.603Z,10.6
2022-12-24T01:51:01.186Z,10.7
2022-12-24T01:52:00.784Z,10.7
2022-12-24T01:53:00.378Z,10.6
2022-12-24T01:54:01.047Z,10.6
2022-12-24T01:55:00.622Z,10.6
2022-12-24T01:56:01.198Z,10.7
2022-12-24T01:57:00.875Z,10.6
2022-12-24T01:58:00.429Z,10.5
2022-12-24T01:59:01.031Z,10.6
2022-12-24T02:00:00.665Z,10.6
2022-12-24T02:01:01.212Z,10.6
2022-12-24T02:02:00.884Z,10.6
2022-12-24T02:03:00.654Z,10.6
2022-12-24T02:04:01.026Z,10.5
2022-12-24T02:05:00.617Z,10.5
2022-12-24T02:06:01.218Z,10.6
2022-12-24T02:07:00.803Z,10.5
2022-12-24T02:08:00.397Z,10.5
2022-12-24T02:09:00.978Z,10.6
2022-12-24T02:10:00.578Z,10.6
2022-12-24T02:11:01.195Z,10.5
2022-12-24T02:12:00.794Z,10.5
2022-12-24T02:13:00.395Z,10.6
2022-12-24T02:14:00.981Z,10.6
2022-12-24T02:15:00.637Z,10.5
2022-12-24T02:16:01.245Z,10.5
2022-12-24T02:17:00.881Z,10.5
2022-12-24T02:18:00.395Z,10.5
2022-12-24T02:19:00.977Z,10.5
2022-12-24T02:20:00.576Z,10.4
2022-12-24T02:21:01.181Z,10.4
2022-12-24T02:22:00.768Z,10.4
2022-12-24T02:23:00.359Z,10.4
2022-12-24T02:24:00.930Z,10.4
2022-12-24T02:25:00.525Z,10.4
2022-12-24T02:26:01.113Z,10.5
2022-12-24T02:27:00.704Z,10.5
2022-12-24T02:28:00.305Z,10.5
2022-12-24T02:29:00.867Z,10.4
2022-12-24T02:30:00.455Z,10.5
2022-12-24T02:31:01.086Z,10.4
2022-12-24T02:32:00.747Z,10.3
2022-12-24T02:33:00.285Z,10.3
2022-12-24T02:34:00.882Z,10.3
2022-12-24T02:35:00.477Z,10.3
2022-12-24T02:36:01.054Z,10.3
2022-12-24T02:37:00.668Z,10.3
2022-12-24T02:38:00.233Z,10.3
2022-12-24T02:39:00.827Z,10.2
2022-12-24T02:40:00.422Z,10.2
2022-12-24T02:41:01.003Z,10.2
2022-12-24T02:42:00.630Z,10.2
2022-12-24T02:43:01.187Z,10.1
2022-12-24T02:44:00.790Z,10.1
2022-12-24T02:45:00.376Z,10
2022-12-24T02:46:00.982Z,10.1
2022-12-24T02:47:00.751Z,10.1
2022-12-24T02:48:01.172Z,10
2022-12-24T02:49:00.758Z,10.1
2022-12-24T02:50:00.368Z,10
2022-12-24T02:51:00.934Z,10
2022-12-24T02:52:00.553Z,10.1
2022-12-24T02:53:01.095Z,10
2022-12-24T02:54:00.690Z,9.9
2022-12-24T02:55:00.351Z,9.9
2022-12-24T02:56:00.874Z,9.9
2022-12-24T02:57:00.468Z,9.9
2022-12-24T02:58:01.051Z,9.9
2022-12-24T02:59:00.654Z,10
2022-12-24T03:00:00.254Z,10
2022-12-24T03:01:00.885Z,10
2022-12-24T03:02:00.488Z,10
2022-12-24T03:03:01.129Z,10.1
2022-12-24T03:04:00.731Z,10.1
2022-12-24T03:05:00.289Z,10.1
2022-12-24T03:06:00.892Z,10.1
2022-12-24T03:07:00.487Z,10
2022-12-24T03:08:01.071Z,9.9
2022-12-24T03:09:00.672Z,10
2022-12-24T03:10:00.255Z,10
2022-12-24T03:11:00.853Z,9.9
2022-12-24T03:12:00.441Z,9.9
2022-12-24T03:13:01.015Z,9.9
2022-12-24T03:14:00.607Z,9.9
2022-12-24T03:15:01.206Z,10
2022-12-24T03:16:00.862Z,10
2022-12-24T03:17:00.433Z,10.1
2022-12-24T03:18:01.023Z,10
2022-12-24T03:19:00.659Z,10
2022-12-24T03:20:00.234Z,10
2022-12-24T03:21:00.812Z,10.1
2022-12-24T03:22:00.399Z,10.1
2022-12-24T03:23:01.018Z,10.1
2022-12-24T03:24:00.607Z,10.1
2022-12-24T03:25:01.191Z,10.1
2022-12-24T03:26:00.800Z,10.1
2022-12-24T03:27:00.395Z,10
2022-12-24T03:28:00.984Z,10
2022-12-24T03:29:00.591Z,10
2022-12-24T03:30:01.183Z,10
2022-12-24T03:31:00.808Z,10.1
2022-12-24T03:32:00.443Z,10
2022-12-24T03:33:00.979Z,10.1
2022-12-24T03:34:00.590Z,10
2022-12-24T03:35:01.154Z,10
2022-12-24T03:36:00.777Z,10
2022-12-24T03:37:00.362Z,10
2022-12-24T03:38:00.938Z,10
2022-12-24T03:39:00.602Z,10
2022-12-24T03:40:01.116Z,10
2022-12-24T03:41:00.705Z,10
2022-12-24T03:42:00.277Z,10.1
2022-12-24T03:43:00.851Z,10
2022-12-24T03:44:00.509Z,10
2022-12-24T03:45:01.071Z,10
2022-12-24T03:46:00.716Z,10
2022-12-24T03:47:00.241Z,10
2022-12-24T03:48:00.836Z,10
2022-12-24T03:49:00.463Z,10.1
2022-12-24T03:50:01.005Z,10
2022-12-24T03:51:00.593Z,10.1
2022-12-24T03:52:01.204Z,10.2
2022-12-24T03:53:00.820Z,10.2
2022-12-24T03:54:00.443Z,10.1
2022-12-24T03:55:01.053Z,10.1
2022-12-24T03:56:00.646Z,10.1
2022-12-24T03:57:00.240Z,10.1
2022-12-24T03:58:00.801Z,10.2
2022-12-24T03:59:00.414Z,10.1
2022-12-24T04:00:00.974Z,10.2
2022-12-24T04:01:00.571Z,10.2
2022-12-24T04:02:01.351Z,10.1
2022-12-24T04:03:01.032Z,10.1
2022-12-24T04:04:00.398Z,10.1
2022-12-24T04:05:00.952Z,10.1
2022-12-24T04:06:00.556Z,10.2
2022-12-24T04:07:01.112Z,10.1
2022-12-24T04:08:00.723Z,10.1
2022-12-24T04:09:00.283Z,10
2022-12-24T04:10:00.885Z,10
2022-12-24T04:11:04.805Z,10.1
2022-12-24T04:12:01.055Z,10.1
2022-12-24T04:13:00.657Z,10.1
2022-12-24T04:14:00.226Z,10.1
2022-12-24T04:15:00.815Z,10.1
2022-12-24T04:16:00.468Z,10.1
2022-12-24T04:17:01.142Z,10.1
2022-12-24T04:18:00.639Z,10.1
2022-12-24T04:19:00.226Z,10
2022-12-24T04:20:00.809Z,10
2022-12-24T04:21:00.416Z,10.1
2022-12-24T04:22:00.967Z,10
2022-12-24T04:23:00.555Z,10
2022-12-24T04:24:01.173Z,10
2022-12-24T04:25:00.757Z,10
2022-12-24T04:26:00.352Z,10
2022-12-24T04:27:00.906Z,10
2022-12-24T04:28:00.513Z,10
2022-12-24T04:29:01.082Z,10.1
2022-12-24T04:30:00.678Z,10
2022-12-24T04:31:00.269Z,10
2022-12-24T04:32:00.979Z,10
2022-12-24T04:33:00.493Z,10
2022-12-24T04:34:01.057Z,10
2022-12-24T04:35:00.648Z,10
2022-12-24T04:36:01.222Z,10
2022-12-24T04:37:00.818Z,10
2022-12-24T04:38:00.434Z,10
2022-12-24T04:39:00.987Z,10
2022-12-24T04:40:00.604Z,10
2022-12-24T04:41:01.169Z,9.9
2022-12-24T04:42:00.759Z,10
2022-12-24T04:43:00.386Z,10.1
2022-12-24T04:44:00.924Z,10
2022-12-24T04:45:00.512Z,9.9
2022-12-24T04:46:01.131Z,10
2022-12-24T04:47:00.753Z,10
2022-12-24T04:48:00.357Z,10
2022-12-24T04:49:00.931Z,9.9
2022-12-24T04:50:00.523Z,10
2022-12-24T04:51:01.111Z,9.9
2022-12-24T04:52:00.711Z,10
2022-12-24T04:53:00.309Z,10
2022-12-24T04:54:00.885Z,10
2022-12-24T04:55:00.512Z,10
2022-12-24T04:56:01.135Z,10
2022-12-24T04:57:00.708Z,10
2022-12-24T04:58:00.288Z,10
2022-12-24T04:59:00.870Z,9.9
2022-12-24T05:00:00.486Z,10
2022-12-24T05:01:01.072Z,10.1
2022-12-24T05:02:00.801Z,10
2022-12-24T05:03:00.347Z,10
2022-12-24T05:04:00.856Z,10
2022-12-24T05:05:00.469Z,9.9
2022-12-24T05:06:01.576Z,9.9
2022-12-24T05:07:00.293Z,10
2022-12-24T05:08:00.890Z,9.9
2022-12-24T05:09:00.488Z,9.9
2022-12-24T05:10:01.074Z,9.9
2022-12-24T05:11:00.660Z,9.9
2022-12-24T05:12:00.282Z,9.9
2022-12-24T05:13:00.818Z,9.9
2022-12-24T05:14:00.455Z,10
2022-12-24T05:15:01.017Z,10
2022-12-24T05:16:00.628Z,10
2022-12-24T05:17:01.202Z,9.9
2022-12-24T05:18:00.809Z,9.9
2022-12-24T05:19:00.395Z,9.9
2022-12-24T05:20:01.007Z,9.8
2022-12-24T05:21:00.618Z,9.9
2022-12-24T05:22:01.213Z,9.8
2022-12-24T05:23:00.811Z,9.9
2022-12-24T05:24:00.401Z,9.9
2022-12-24T05:25:00.978Z,9.9
2022-12-24T05:26:00.585Z,9.9
2022-12-24T05:27:01.146Z,9.9
2022-12-24T05:28:00.790Z,9.9
2022-12-24T05:29:00.390Z,9.9
2022-12-24T05:30:00.963Z,10
2022-12-24T05:31:00.648Z,9.9
2022-12-24T05:32:01.124Z,10
2022-12-24T05:33:00.732Z,10
2022-12-24T05:34:00.309Z,10
2022-12-24T05:35:00.884Z,10
2022-12-24T05:36:00.494Z,9.9
2022-12-24T05:37:01.049Z,10
2022-12-24T05:38:00.638Z,10.1
2022-12-24T05:39:01.223Z,10
2022-12-24T05:40:00.840Z,10
2022-12-24T05:41:00.489Z,10.1
2022-12-24T05:42:01.070Z,10.1
2022-12-24T05:43:00.659Z,10.1
2022-12-24T05:44:00.262Z,10.1
2022-12-24T05:45:00.807Z,10.1
2022-12-24T05:46:00.475Z,10.1
2022-12-24T05:47:00.986Z,10.2
2022-12-24T05:48:00.576Z,10.1
2022-12-24T05:49:01.155Z,10.2
2022-12-24T05:50:00.744Z,10.2
2022-12-24T05:51:00.344Z,10.3
2022-12-24T05:52:00.925Z,10.3
2022-12-24T05:53:00.523Z,10.3
2022-12-24T05:54:01.100Z,10.3
2022-12-24T05:55:00.698Z,10.3
2022-12-24T05:56:00.290Z,10.3
2022-12-24T05:57:00.888Z,10.2
2022-12-24T05:58:00.474Z,10.2
2022-12-24T05:59:01.061Z,10.2
2022-12-24T06:00:00.682Z,10.2
2022-12-24T06:01:01.220Z,10.2
2022-12-24T06:02:01.023Z,10.2
2022-12-24T06:03:00.517Z,10.2
2022-12-24T06:04:01.112Z,10.3
2022-12-24T06:05:00.744Z,10.1
2022-12-24T06:06:00.274Z,10.1
2022-12-24T06:07:00.885Z,10.2
2022-12-24T06:08:00.481Z,10.2
2022-12-24T06:09:01.057Z,10.2
2022-12-24T06:10:00.645Z,10.1
2022-12-24T06:11:00.225Z,10.1
2022-12-24T06:12:00.833Z,10.1
2022-12-24T06:13:00.424Z,10.1
2022-12-24T06:14:00.999Z,10
2022-12-24T06:15:00.583Z,10.1
2022-12-24T06:16:01.279Z,10.1
2022-12-24T06:17:00.919Z,10.1
2022-12-24T06:18:00.382Z,10.1
2022-12-24T06:19:00.952Z,10.1
2022-12-24T06:20:00.537Z,10.1
2022-12-24T06:21:01.125Z,10.1
2022-12-24T06:22:00.739Z,10.2
2022-12-24T06:23:00.294Z,10.2
2022-12-24T06:24:00.879Z,10.1
2022-12-24T06:25:00.491Z,10.2
2022-12-24T06:26:01.153Z,10.2
2022-12-24T06:27:00.723Z,10.2
2022-12-24T06:28:00.310Z,10.2
2022-12-24T06:29:00.904Z,10.2
2022-12-24T06:30:00.515Z,10.3
2022-12-24T06:31:03.103Z,10.3
2022-12-24T06:32:00.698Z,10.3
2022-12-24T06:33:00.293Z,10.3
2022-12-24T06:34:00.889Z,10.3
2022-12-24T06:35:00.485Z,10.2
2022-12-24T06:36:01.064Z,10.3
2022-12-24T06:37:00.721Z,10.3
2022-12-24T06:38:00.284Z,10.3
2022-12-24T06:39:00.868Z,10.3
2022-12-24T06:40:00.454Z,10.4
2022-12-24T06:41:01.058Z,10.4
2022-12-24T06:42:00.651Z,10.4
2022-12-24T06:43:00.238Z,10.4
2022-12-24T06:44:00.838Z,10.4
2022-12-24T06:45:05.694Z,10.4
2022-12-24T06:46:01.009Z,10.3
2022-12-24T06:47:00.694Z,10.3
2022-12-24T06:48:01.251Z,10.3
2022-12-24T06:49:00.842Z,10.3
2022-12-24T06:50:00.426Z,10.3
2022-12-24T06:51:01.010Z,10.3
2022-12-24T06:52:00.599Z,10.3
2022-12-24T06:53:01.191Z,10.3
2022-12-24T06:54:00.802Z,10.3
2022-12-24T06:55:00.387Z,10.3
2022-12-24T06:56:00.966Z,10.3
2022-12-24T06:57:00.583Z,10.3
2022-12-24T06:58:01.166Z,10.2
2022-12-24T06:59:05.207Z,10.3
2022-12-24T07:00:00.294Z,10.2
2022-12-24T07:01:00.892Z,10.3
2022-12-24T07:02:00.690Z,10.3
2022-12-24T07:03:01.107Z,10.2
2022-12-24T07:04:00.766Z,10.3
2022-12-24T07:05:00.285Z,10.3
2022-12-24T07:06:00.887Z,10.2
2022-12-24T07:07:00.473Z,10.3
2022-12-24T07:08:01.077Z,10.3
2022-12-24T07:09:00.683Z,10.3
2022-12-24T07:10:00.243Z,10.3
2022-12-24T07:11:00.817Z,10.3
2022-12-24T07:12:00.407Z,10.3
2022-12-24T07:13:01.015Z,10.3
2022-12-24T07:14:00.629Z,10.3
2022-12-24T07:15:01.201Z,10.3
2022-12-24T07:16:00.874Z,10.3
2022-12-24T07:17:00.560Z,10.3
2022-12-24T07:18:01.039Z,10.3
2022-12-24T07:19:00.675Z,10.3
2022-12-24T07:20:01.276Z,10.3
2022-12-24T07:21:00.889Z,10.3
2022-12-24T07:22:00.468Z,10.2
2022-12-24T07:23:01.062Z,10.2
2022-12-24T07:24:00.675Z,10.1
2022-12-24T07:25:01.244Z,10.2
2022-12-24T07:26:00.842Z,10.2
2022-12-24T07:27:00.432Z,10.2
2022-12-24T07:28:01.014Z,10.2
2022-12-24T07:29:00.629Z,10.2
2022-12-24T07:30:01.198Z,10.1
2022-12-24T07:31:00.976Z,10.2
2022-12-24T07:32:00.485Z,10.2
2022-12-24T07:33:00.995Z,10.2
2022-12-24T07:34:00.607Z,10.2
2022-12-24T07:35:01.159Z,10.2
2022-12-24T07:36:00.781Z,10.3
2022-12-24T07:37:00.335Z,10.2
2022-12-24T07:38:00.920Z,10.2
2022-12-24T07:39:00.534Z,10.3
2022-12-24T07:40:01.117Z,10.3
2022-12-24T07:41:00.712Z,10.3
2022-12-24T07:42:00.311Z,10.3
2022-12-24T07:43:00.864Z,10.3
2022-12-24T07:44:00.492Z,10.3
2022-12-24T07:45:01.078Z,10.3
2022-12-24T07:46:00.678Z,10.3
2022-12-24T07:47:00.305Z,10.2
2022-12-24T07:48:00.857Z,10.2
2022-12-24T07:49:00.476Z,10.3
2022-12-24T07:50:01.040Z,10.3
2022-12-24T07:51:00.637Z,10.3
2022-12-24T07:52:01.227Z,10.3
2022-12-24T07:53:00.821Z,10.4
2022-12-24T07:54:00.427Z,10.4
2022-12-24T07:55:01.028Z,10.4
2022-12-24T07:56:00.620Z,10.4
2022-12-24T07:57:01.204Z,10.3
2022-12-24T07:58:00.844Z,10.3
2022-12-24T07:59:00.427Z,10.3
2022-12-24T08:00:01.032Z,10.3
2022-12-24T08:01:00.646Z,10.3
2022-12-24T08:02:01.412Z,10.3
2022-12-24T08:03:01.268Z,10.3
2022-12-24T08:04:00.966Z,10.4
2022-12-24T08:05:00.570Z,10.3
2022-12-24T08:06:01.180Z,10.4
2022-12-24T08:07:00.790Z,10.3
2022-12-24T08:08:00.407Z,10.4
2022-12-24T08:09:01.001Z,10.3
2022-12-24T08:10:00.599Z,10.4
2022-12-24T08:11:01.205Z,10.3
2022-12-24T08:12:00.792Z,10.3
2022-12-24T08:13:00.378Z,10.3
2022-12-24T08:14:00.955Z,10.4
2022-12-24T08:15:00.546Z,10.3
2022-12-24T08:16:01.230Z,10.4
2022-12-24T08:17:00.779Z,10.4
2022-12-24T08:18:00.354Z,10.4
2022-12-24T08:19:00.929Z,10.4
2022-12-24T08:20:00.536Z,10.4
2022-12-24T08:21:01.141Z,10.4
2022-12-24T08:22:00.735Z,10.3
2022-12-24T08:23:00.307Z,10.4
2022-12-24T08:24:00.904Z,10.4
2022-12-24T08:25:00.520Z,10.4
2022-12-24T08:26:01.109Z,10.4
2022-12-24T08:27:00.698Z,10.4
2022-12-24T08:28:00.285Z,10.4
2022-12-24T08:29:00.896Z,10.4
2022-12-24T08:30:00.512Z,10.4
2022-12-24T08:31:01.121Z,10.4
2022-12-24T08:32:00.762Z,10.5
2022-12-24T08:33:00.295Z,10.5
2022-12-24T08:34:00.881Z,10.5
2022-12-24T08:35:00.486Z,10.5
2022-12-24T08:36:01.091Z,10.4
2022-12-24T08:37:00.685Z,10.4
2022-12-24T08:38:00.266Z,10.5
2022-12-24T08:39:00.859Z,10.5
2022-12-24T08:40:00.474Z,10.5
2022-12-24T08:41:01.045Z,10.5
2022-12-24T08:42:00.675Z,10.5
2022-12-24T08:43:01.248Z,10.5
2022-12-24T08:44:00.938Z,10.5
2022-12-24T08:45:00.428Z,10.5
2022-12-24T08:46:01.032Z,10.5
2022-12-24T08:47:00.644Z,10.5
2022-12-24T08:48:01.220Z,10.5
2022-12-24T08:49:00.868Z,10.5
2022-12-24T08:50:00.441Z,10.4
2022-12-24T08:51:01.026Z,10.4
2022-12-24T08:52:00.618Z,10.5
2022-12-24T08:53:01.208Z,10.5
2022-12-24T08:54:00.814Z,10.5
2022-12-24T08:55:00.399Z,10.5
2022-12-24T08:56:00.996Z,10.5
2022-12-24T08:57:00.586Z,10.5
2022-12-24T08:58:01.238Z,10.5
2022-12-24T08:59:00.872Z,10.5
2022-12-24T09:00:00.394Z,10.5
2022-12-24T09:01:01.034Z,10.5
2022-12-24T09:02:00.846Z,10.5
2022-12-24T09:03:01.353Z,10.5
2022-12-24T09:04:01.045Z,10.5
2022-12-24T09:05:00.487Z,10.6
2022-12-24T09:06:01.036Z,10.5
2022-12-24T09:07:00.642Z,10.5
2022-12-24T09:08:01.200Z,10.5
2022-12-24T09:09:00.816Z,10.5
2022-12-24T09:10:00.404Z,10.5
2022-12-24T09:11:00.998Z,10.5
2022-12-24T09:12:00.627Z,10.5
2022-12-24T09:13:01.176Z,10.5
2022-12-24T09:14:00.766Z,10.5
2022-12-24T09:15:03.651Z,10.5
2022-12-24T09:16:00.962Z,10.5
2022-12-24T09:17:00.644Z,10.6
2022-12-24T09:18:01.124Z,10.6
2022-12-24T09:19:00.738Z,10.6
2022-12-24T09:20:00.307Z,10.6
2022-12-24T09:21:00.881Z,10.7
2022-12-24T09:22:00.500Z,10.6
2022-12-24T09:23:01.049Z,10.6
2022-12-24T09:24:00.633Z,10.7
2022-12-24T09:25:01.210Z,10.7
2022-12-24T09:26:00.806Z,10.7
2022-12-24T09:27:00.445Z,10.6
2022-12-24T09:28:01.020Z,10.6
2022-12-24T09:29:00.623Z,10.6
2022-12-24T09:30:01.200Z,10.6
2022-12-24T09:31:00.830Z,10.6
2022-12-24T09:32:00.490Z,10.5
2022-12-24T09:33:00.989Z,10.6
2022-12-24T09:34:00.576Z,10.7
2022-12-24T09:35:01.167Z,10.7
2022-12-24T09:36:00.771Z,10.7
2022-12-24T09:37:00.362Z,10.7
2022-12-24T09:38:00.924Z,10.7
2022-12-24T09:39:00.542Z,10.8
2022-12-24T09:40:01.181Z,10.8
2022-12-24T09:41:05.334Z,10.8
2022-12-24T09:42:00.300Z,10.7
2022-12-24T09:43:00.909Z,10.7
2022-12-24T09:44:00.540Z,10.7
2022-12-24T09:45:01.068Z,10.8
2022-12-24T09:46:00.753Z,10.8
2022-12-24T09:47:04.121Z,11
2022-12-24T09:48:00.781Z,10.9
2022-12-24T09:49:00.390Z,11
2022-12-24T09:50:00.990Z,11
2022-12-24T09:51:00.582Z,11.1
2022-12-24T09:52:01.167Z,11.2
2022-12-24T09:53:00.757Z,11.2
2022-12-24T09:54:00.354Z,11.2
2022-12-24T09:55:00.941Z,11
2022-12-24T09:56:00.524Z,11.1
2022-12-24T09:57:01.112Z,11
2022-12-24T09:58:00.699Z,11
2022-12-24T09:59:00.341Z,10.9
2022-12-24T10:00:00.930Z,10.9
2022-12-24T10:01:00.590Z,10.8
2022-12-24T10:02:01.254Z,10.8
2022-12-24T10:03:00.799Z,10.8
2022-12-24T10:04:00.344Z,10.8
2022-12-24T10:05:00.949Z,10.7
2022-12-24T10:06:00.542Z,10.7
2022-12-24T10:07:01.114Z,10.8
2022-12-24T10:08:00.704Z,10.7
2022-12-24T10:09:00.279Z,10.7
2022-12-24T10:10:00.889Z,10.7
2022-12-24T10:11:00.476Z,10.7
2022-12-24T10:12:01.064Z,10.8
2022-12-24T10:13:00.664Z,10.7
2022-12-24T10:14:01.237Z,10.7
2022-12-24T10:15:00.845Z,10.7
2022-12-24T10:16:00.483Z,10.7
2022-12-24T10:17:01.062Z,10.7
2022-12-24T10:18:00.676Z,10.7
2022-12-24T10:19:01.251Z,10.8
2022-12-24T10:20:00.891Z,10.9
2022-12-24T10:21:00.477Z,10.9
2022-12-24T10:22:01.060Z,10.9
2022-12-24T10:23:00.643Z,10.9
2022-12-24T10:24:01.260Z,10.9
2022-12-24T10:25:00.926Z,10.9
2022-12-24T10:26:00.466Z,11
2022-12-24T10:27:01.056Z,10.9
2022-12-24T10:28:00.647Z,10.9
2022-12-24T10:29:01.218Z,11
2022-12-24T10:30:00.827Z,11.2
2022-12-24T10:31:00.490Z,11.3
2022-12-24T10:32:01.040Z,11.4
2022-12-24T10:33:00.629Z,11.4
2022-12-24T10:34:01.229Z,11.4
2022-12-24T10:35:00.850Z,11.3
2022-12-24T10:36:00.435Z,11.3
2022-12-24T10:37:01.017Z,11.2
2022-12-24T10:38:00.607Z,11.3
2022-12-24T10:39:01.176Z,11.4
2022-12-24T10:40:00.815Z,11.4
2022-12-24T10:41:00.455Z,11.4
2022-12-24T10:42:01.022Z,11.4
2022-12-24T10:43:00.613Z,11.3
2022-12-24T10:44:01.197Z,11.3
2022-12-24T10:45:00.809Z,11.3
2022-12-24T10:46:00.479Z,11.3
2022-12-24T10:47:00.999Z,11.3
2022-12-24T10:48:00.613Z,11.3
2022-12-24T10:49:01.167Z,11.4
2022-12-24T10:50:00.778Z,11.5
2022-12-24T10:51:00.341Z,11.5
2022-12-24T10:52:00.945Z,11.7
2022-12-24T10:53:00.552Z,11.8
2022-12-24T10:54:01.121Z,11.9
2022-12-24T10:55:00.717Z,11.8
2022-12-24T10:56:00.302Z,11.6
2022-12-24T10:57:00.903Z,11.6
2022-12-24T10:58:00.508Z,11.6
2022-12-24T10:59:01.089Z,11.7
2022-12-24T11:00:00.734Z,11.7
2022-12-24T11:01:00.317Z,11.7
2022-12-24T11:02:01.009Z,11.8
2022-12-24T11:03:00.743Z,11.7
2022-12-24T11:04:01.115Z,11.7
2022-12-24T11:05:00.734Z,11.8
2022-12-24T11:06:00.288Z,11.8
2022-12-24T11:07:00.892Z,11.7
2022-12-24T11:08:00.492Z,11.6
2022-12-24T11:09:01.089Z,11.6
2022-12-24T11:10:00.695Z,11.6
2022-12-24T11:11:00.269Z,11.5
2022-12-24T11:12:05.356Z,11.4
2022-12-24T11:13:35.417Z,11.4
2022-12-24T11:14:00.945Z,11.4
2022-12-24T11:15:00.534Z,11.5
2022-12-24T11:16:01.176Z,11.4
2022-12-24T11:17:00.796Z,11.3
2022-12-24T11:18:00.384Z,11.2
2022-12-24T11:19:00.949Z,11.2
2022-12-24T11:20:00.564Z,11.3
2022-12-24T11:21:01.144Z,11.3
2022-12-24T11:22:00.735Z,11.2
2022-12-24T11:23:00.339Z,11.1
2022-12-24T11:24:00.897Z,11.1
2022-12-24T11:25:00.480Z,11.1
2022-12-24T11:26:01.069Z,11.1
2022-12-24T11:27:00.655Z,11.2
2022-12-24T11:28:01.248Z,11.2
2022-12-24T11:29:00.833Z,11.3
2022-12-24T11:30:01.565Z,11.3
2022-12-24T11:31:01.010Z,11.3
2022-12-24T11:32:00.626Z,11.3
2022-12-24T11:33:01.245Z,11.4
2022-12-24T11:34:00.839Z,11.5
2022-12-24T11:35:00.432Z,11.5
2022-12-24T11:36:01.047Z,11.6
2022-12-24T11:37:00.637Z,11.5
2022-12-24T11:38:01.312Z,11.6
2022-12-24T11:39:00.939Z,11.7
2022-12-24T11:40:00.508Z,11.9
2022-12-24T11:41:01.044Z,11.8
2022-12-24T11:42:00.677Z,11.8
2022-12-24T11:43:01.257Z,11.9
2022-12-24T11:44:00.847Z,11.8
2022-12-24T11:45:00.438Z,11.7
2022-12-24T11:46:01.021Z,11.7
2022-12-24T11:47:00.647Z,11.6
2022-12-24T11:48:01.253Z,11.6
2022-12-24T11:49:05.950Z,11.5
2022-12-24T11:50:17.471Z,11.5
2022-12-24T11:51:00.948Z,11.5
2022-12-24T11:52:00.570Z,11.4
2022-12-24T11:53:01.114Z,11.4
2022-12-24T11:54:00.734Z,11.3
2022-12-24T11:55:00.297Z,11.2
2022-12-24T11:56:00.889Z,11.2
2022-12-24T11:57:00.486Z,11.2
2022-12-24T11:58:01.075Z,11.1
2022-12-24T11:59:00.691Z,11.2
2022-12-24T12:00:01.252Z,11.2
2022-12-24T12:01:00.894Z,11.2
2022-12-24T12:02:00.547Z,11.2
2022-12-24T12:03:01.091Z,11.2
2022-12-24T12:04:00.799Z,11.3
2022-12-24T12:05:00.300Z,11.3
2022-12-24T12:06:00.872Z,11.3
2022-12-24T12:07:00.464Z,11.4
2022-12-24T12:08:01.073Z,11.4
2022-12-24T12:09:00.729Z,11.4
2022-12-24T12:10:00.298Z,11.4
2022-12-24T12:11:00.868Z,11.3
2022-12-24T12:12:00.463Z,11.3
2022-12-24T12:13:01.046Z,11.3
2022-12-24T12:14:00.659Z,11.4
2022-12-24T12:15:01.244Z,11.4
2022-12-24T12:16:00.863Z,11.4
2022-12-24T12:17:00.499Z,11.5
2022-12-24T12:18:01.040Z,11.5
2022-12-24T12:19:00.629Z,11.4
2022-12-24T12:20:01.260Z,11.4
2022-12-24T12:21:00.917Z,11.5
2022-12-24T12:22:00.459Z,11.3
2022-12-24T12:23:01.028Z,11.3
2022-12-24T12:24:00.641Z,11.4
2022-12-24T12:25:01.223Z,11.4
2022-12-24T12:26:00.836Z,11.4
2022-12-24T12:27:00.445Z,11.4
2022-12-24T12:28:01.019Z,11.4
2022-12-24T12:29:00.607Z,11.3
2022-12-24T12:30:01.211Z,11.4
2022-12-24T12:31:00.821Z,11.3
2022-12-24T12:32:00.501Z,11.3
2022-12-24T12:33:01.055Z,11.3
2022-12-24T12:34:00.658Z,11.2
2022-12-24T12:35:01.255Z,11.3
2022-12-24T12:36:00.870Z,11.2
2022-12-24T12:37:00.460Z,11.2
2022-12-24T12:38:01.042Z,11.1
2022-12-24T12:39:00.641Z,11.1
2022-12-24T12:40:01.251Z,11.1
2022-12-24T12:41:00.872Z,11.1
2022-12-24T12:42:00.470Z,11
2022-12-24T12:43:01.051Z,11
2022-12-24T12:44:00.637Z,11
2022-12-24T12:45:01.268Z,11
2022-12-24T12:46:00.909Z,11.2
2022-12-24T12:47:00.505Z,11.1
2022-12-24T12:48:01.026Z,11.1
2022-12-24T12:49:02.999Z,11.3
2022-12-24T12:50:01.178Z,11.3
2022-12-24T12:51:00.799Z,11.3
2022-12-24T12:52:00.417Z,11.4
2022-12-24T12:53:00.970Z,11.4
2022-12-24T12:54:00.557Z,11.3
2022-12-24T12:55:01.138Z,11.2
2022-12-24T12:56:00.775Z,11.2
2022-12-24T12:57:00.315Z,11.2
2022-12-24T12:58:00.905Z,11.1
2022-12-24T12:59:00.531Z,11.1
2022-12-24T13:00:01.084Z,11
2022-12-24T13:01:00.749Z,11
2022-12-24T13:02:00.439Z,11
2022-12-24T13:03:00.984Z,11.1
2022-12-24T13:04:00.499Z,11.1
2022-12-24T13:05:01.120Z,11.1
2022-12-24T13:06:00.757Z,11.2
2022-12-24T13:07:00.292Z,11.3
2022-12-24T13:08:00.875Z,11.3
2022-12-24T13:09:00.463Z,11.3
2022-12-24T13:10:01.047Z,11.3
2022-12-24T13:11:00.656Z,11.4
2022-12-24T13:12:01.227Z,11.4
2022-12-24T13:13:00.853Z,11.5
2022-12-24T13:14:00.437Z,11.5
2022-12-24T13:15:01.028Z,11.5
2022-12-24T13:16:00.669Z,11.6
2022-12-24T13:17:01.192Z,11.6
2022-12-24T13:18:00.800Z,11.7
2022-12-24T13:19:00.393Z,11.7
2022-12-24T13:20:00.989Z,11.6
2022-12-24T13:21:00.600Z,11.6
2022-12-24T13:22:01.149Z,11.5
2022-12-24T13:23:00.741Z,11.5
2022-12-24T13:24:00.326Z,11.6
2022-12-24T13:25:00.922Z,11.6
2022-12-24T13:26:00.541Z,11.8